PAKP

Details ICAO PAKP (AKP)
Name ANAKTUVUK PASS
Region USA (Alaska)
Timezone America/Anchorage (UTC-9.0)
Plans Departing 5
Arriving 8
Stats Elevation 2,103 ft / 641 m (AMSL)
Location 68.133599° -151.743340°
Runways 1
Magnetic Variation 16.487° E
Sunrise Unknown / Unknown
Sunset Unknown / Unknown
Advertisement - Login to hide

Runways

ID Width Length Bearing (true) Bearing (mag) Surface Threshold Offset Overrun Length
01 100 ft / 30 m 4,785 ft / 1,458 m 38.32° 21.83° Gravel 0 ft / 0 m 600 ft / 183 m
19 100 ft / 30 m 4,785 ft / 1,458 m 218.34° 201.85° Gravel 0 ft / 0 m 275 ft / 84 m

Map

Weather


0- 5 10 15 20 25 30 35+ Temperature / ° C

Clouds and Precipitation
Forecast for 2017-12-16 06:00 UTC. Updated 22 minutes ago

Ground ~20,000 ft ~40,000 ft Winds

METAR

PAKP 160328Z AUTO 03008KT 2 1/2SM -SN BR OVC003 M13/M15 A2939 RMK AO2 P0000 FZRANO

TAF

Not found

Frequencies

Recorded 135.75 MHz AWOS 3
Unicom 122.80 MHz CTAF
Warning: Do not use this data for real-world aviation or navigation. No guarantee of current accuracy is given.